createdAt,value
2023-02-07T00:01:17.988Z,102255.91
2023-02-07T00:03:45.674Z,102246.38
2023-02-07T00:06:19.061Z,102221.19
2023-02-07T00:08:45.611Z,102225.53
2023-02-07T00:11:17.454Z,102218.53
2023-02-07T00:13:44.890Z,102228.03
2023-02-07T00:16:12.298Z,102214.13
2023-02-07T00:18:39.066Z,102212.38
2023-02-07T00:21:08.483Z,102210.59
2023-02-07T00:23:36.476Z,102224.41
2023-02-07T00:26:04.550Z,102217.44
2023-02-07T00:28:31.391Z,102216.59
2023-02-07T00:31:04.469Z,102214.78
2023-02-07T00:33:31.029Z,102216.53
2023-02-07T00:35:59.285Z,102223.41
2023-02-07T00:38:25.721Z,102228.63
2023-02-07T00:40:52.238Z,102228.59
2023-02-07T00:43:29.034Z,102225.09
2023-02-07T00:45:59.427Z,102215.59
2023-02-07T00:48:27.787Z,102206.00
2023-02-07T00:50:54.575Z,102196.47
2023-02-07T00:53:21.562Z,102206.88
2023-02-07T00:55:48.019Z,102220.72
2023-02-07T00:58:14.711Z,102215.53
2023-02-07T01:00:41.123Z,102200.78
2023-02-07T01:03:07.572Z,102201.66
2023-02-07T01:05:34.047Z,102212.88
2023-02-07T01:08:00.784Z,102211.97
2023-02-07T01:10:27.332Z,102217.16
2023-02-07T01:12:53.715Z,102212.81
2023-02-07T01:15:20.673Z,102209.28
2023-02-07T01:17:47.032Z,102217.09
2023-02-07T01:20:15.584Z,102217.06
2023-02-07T01:22:42.179Z,102212.72
2023-02-07T01:25:09.220Z,102213.56
2023-02-07T01:27:36.382Z,102208.34
2023-02-07T01:30:04.011Z,102209.19
2023-02-07T01:32:32.416Z,102212.66
2023-02-07T01:34:58.947Z,102223.00
2023-02-07T01:37:25.341Z,102219.47
2023-02-07T01:39:53.122Z,102222.06
2023-02-07T01:42:19.540Z,102210.78
2023-02-07T01:44:46.003Z,102215.94
2023-02-07T01:47:17.825Z,102219.34
2023-02-07T01:49:46.616Z,102219.34
2023-02-07T01:52:17.665Z,102227.97
2023-02-07T01:54:49.708Z,102229.69
2023-02-07T01:57:19.458Z,102218.44
2023-02-07T01:59:48.697Z,102214.94
2023-02-07T02:02:17.467Z,102218.38
2023-02-07T02:04:55.674Z,102227.81
2023-02-07T02:07:23.067Z,102222.66
2023-02-07T02:09:50.633Z,102219.13
2023-02-07T02:12:37.658Z,102210.47
2023-02-07T02:15:26.177Z,102220.78
2023-02-07T02:18:27.160Z,102213.81
2023-02-07T02:21:33.249Z,102209.44
2023-02-07T02:23:59.571Z,102206.88
2023-02-07T02:26:49.605Z,102207.66
2023-02-07T02:29:29.398Z,102194.66
2023-02-07T02:32:35.006Z,102215.34
2023-02-07T02:35:08.788Z,102217.06
2023-02-07T02:37:48.124Z,102208.38
2023-02-07T02:40:41.644Z,102193.59
2023-02-07T02:43:13.228Z,102198.84
2023-02-07T02:45:44.628Z,102203.13
2023-02-07T02:48:12.815Z,102194.47
2023-02-07T02:50:39.720Z,102190.09
2023-02-07T02:53:07.114Z,102186.63
2023-02-07T02:56:21.905Z,102184.88
2023-02-07T02:59:01.161Z,102175.38
2023-02-07T03:01:39.643Z,102182.31
2023-02-07T03:04:24.458Z,102171.06
2023-02-07T03:07:09.275Z,102176.25
2023-02-07T03:09:49.301Z,102175.41
2023-02-07T03:12:26.955Z,102178.00
2023-02-07T03:15:11.887Z,102175.38
2023-02-07T03:17:58.340Z,102171.06
2023-02-07T03:20:59.167Z,102163.31
2023-02-07T03:23:29.205Z,102174.63
2023-02-07T03:26:00.222Z,102171.13
2023-02-07T03:28:30.180Z,102172.91
2023-02-07T03:31:02.850Z,102167.72
2023-02-07T03:33:29.439Z,102165.13
2023-02-07T03:36:17.437Z,102170.31
2023-02-07T03:38:43.998Z,102158.25
2023-02-07T03:41:24.313Z,102151.31
2023-02-07T03:43:52.640Z,102149.63
2023-02-07T03:46:22.798Z,102144.44
2023-02-07T03:48:49.323Z,102129.75
2023-02-07T03:51:17.703Z,102140.97
2023-02-07T03:53:44.111Z,102139.28
2023-02-07T03:56:11.652Z,102140.13
2023-02-07T03:58:38.001Z,102142.75
2023-02-07T04:01:05.740Z,102138.41
2023-02-07T04:03:32.257Z,102140.16
2023-02-07T04:06:00.713Z,102141.91
2023-02-07T04:08:27.130Z,102141.94
2023-02-07T04:11:01.187Z,102142.72
2023-02-07T04:13:29.479Z,102147.91
2023-02-07T04:15:56.545Z,102154.84
2023-02-07T04:18:23.370Z,102152.25
2023-02-07T04:20:49.748Z,102152.25
2023-02-07T04:23:17.572Z,102162.66
2023-02-07T04:25:43.979Z,102166.09
2023-02-07T04:28:11.821Z,102160.88
2023-02-07T04:30:38.292Z,102155.69
2023-02-07T04:33:05.638Z,102157.34
2023-02-07T04:35:32.105Z,102167.72
2023-02-07T04:38:00.048Z,102152.94
2023-02-07T04:40:26.798Z,102170.31
2023-02-07T04:42:54.380Z,102166.75
2023-02-07T04:45:20.822Z,102167.59
2023-02-07T04:47:48.849Z,102162.38
2023-02-07T04:50:15.393Z,102160.59
2023-02-07T04:52:43.154Z,102158.84
2023-02-07T04:55:09.971Z,102151.00
2023-02-07T04:57:37.000Z,102155.31
2023-02-07T05:00:04.589Z,102155.28
2023-02-07T05:02:31.719Z,102159.56
2023-02-07T05:04:58.115Z,102159.50
2023-02-07T05:07:25.701Z,102169.00
2023-02-07T05:09:53.495Z,102159.50
2023-02-07T05:12:22.857Z,102163.81
2023-02-07T05:14:49.288Z,102163.81
2023-02-07T05:17:15.728Z,102164.66
2023-02-07T05:19:42.211Z,102171.56
2023-02-07T05:22:08.830Z,102184.53
2023-02-07T05:24:35.278Z,102188.84
2023-02-07T05:27:01.739Z,102186.22
2023-02-07T05:29:28.182Z,102185.31
2023-02-07T05:32:13.127Z,102189.59
2023-02-07T05:34:39.550Z,102183.47
2023-02-07T05:37:06.013Z,102187.78
2023-02-07T05:39:32.476Z,102192.94
2023-02-07T05:41:59.080Z,102188.56
2023-02-07T05:44:25.531Z,102182.44
2023-02-07T05:46:52.748Z,102180.72
2023-02-07T05:49:19.411Z,102180.66
2023-02-07T05:51:45.875Z,102177.16
2023-02-07T05:54:12.335Z,102186.59
2023-02-07T05:56:38.751Z,102196.06
2023-02-07T05:59:05.422Z,102189.03
2023-02-07T06:01:31.869Z,102191.59
2023-02-07T06:03:58.378Z,102191.53
2023-02-07T06:06:24.877Z,102194.94
2023-02-07T06:08:51.318Z,102190.50
2023-02-07T06:11:17.844Z,102189.63
2023-02-07T06:13:45.537Z,102195.66
2023-02-07T06:16:12.133Z,102191.31
2023-02-07T06:18:38.946Z,102178.41
2023-02-07T06:21:05.897Z,102186.19
2023-02-07T06:23:32.363Z,102194.84
2023-02-07T06:25:58.770Z,102187.91
2023-02-07T06:28:25.232Z,102192.25
2023-02-07T06:30:53.373Z,102200.00
2023-02-07T06:33:20.291Z,102202.63
2023-02-07T06:35:47.418Z,102200.88
2023-02-07T06:38:18.410Z,102205.19
2023-02-07T06:40:45.205Z,102216.47
2023-02-07T06:43:12.307Z,102210.34
2023-02-07T06:45:39.120Z,102213.81
2023-02-07T06:48:06.317Z,102219.81
2023-02-07T06:50:32.831Z,102218.09
2023-02-07T06:53:02.018Z,102213.75
2023-02-07T06:55:29.975Z,102212.00
2023-02-07T06:57:56.535Z,102211.13
2023-02-07T07:00:24.098Z,102204.19
2023-02-07T07:02:51.380Z,102221.50
2023-02-07T07:05:17.902Z,102218.84
2023-02-07T07:07:44.792Z,102211.06
2023-02-07T07:10:11.397Z,102214.56
2023-02-07T07:12:37.858Z,102220.63
2023-02-07T07:15:05.091Z,102223.25
2023-02-07T07:17:31.649Z,102218.06
2023-02-07T07:19:58.850Z,102216.34
2023-02-07T07:22:25.807Z,102222.44
2023-02-07T07:24:52.266Z,102226.78
2023-02-07T07:27:19.006Z,102222.50
2023-02-07T07:29:45.777Z,102223.38
2023-02-07T07:32:17.780Z,102220.88
2023-02-07T07:34:51.591Z,102222.66
2023-02-07T07:37:18.109Z,102222.69
2023-02-07T07:39:44.613Z,102221.84
2023-02-07T07:42:12.010Z,102224.47
2023-02-07T07:44:38.715Z,102226.22
2023-02-07T07:47:05.174Z,102242.72
2023-02-07T07:49:31.859Z,102235.81
2023-02-07T07:51:58.520Z,102244.53
2023-02-07T07:54:25.015Z,102248.91
2023-02-07T07:56:51.724Z,102243.72
2023-02-07T07:59:23.918Z,102244.66
2023-02-07T08:01:50.806Z,102239.50
2023-02-07T08:04:17.266Z,102232.63
2023-02-07T08:06:43.755Z,102237.00
2023-02-07T08:09:10.316Z,102236.19
2023-02-07T08:11:36.754Z,102237.09
2023-02-07T08:14:03.491Z,102236.31
2023-02-07T08:16:29.991Z,102242.41
2023-02-07T08:18:56.508Z,102249.41
2023-02-07T08:21:23.041Z,102250.34
2023-02-07T08:23:49.450Z,102242.59
2023-02-07T08:26:15.874Z,102246.06
2023-02-07T08:28:42.313Z,102240.97
2023-02-07T08:31:08.840Z,102241.00
2023-02-07T08:33:35.298Z,102252.31
2023-02-07T08:36:01.798Z,102251.53
2023-02-07T08:38:28.246Z,102249.84
2023-02-07T08:40:54.696Z,102253.41
2023-02-07T08:43:21.220Z,102252.63
2023-02-07T08:45:48.722Z,102253.56
2023-02-07T08:48:15.460Z,102259.72
2023-02-07T08:50:41.958Z,102254.59
2023-02-07T08:53:08.483Z,102256.41
2023-02-07T08:55:35.005Z,102253.88
2023-02-07T08:58:01.571Z,102258.25
2023-02-07T09:00:29.292Z,102244.44
2023-02-07T09:02:55.740Z,102257.59
2023-02-07T09:05:22.194Z,102248.09
2023-02-07T09:07:48.677Z,102248.19
2023-02-07T09:10:15.496Z,102244.78
2023-02-07T09:12:42.062Z,102248.31
2023-02-07T09:15:09.044Z,102247.50
2023-02-07T09:17:35.546Z,102236.31
2023-02-07T09:20:02.130Z,102240.75
2023-02-07T09:22:28.687Z,102239.97
2023-02-07T09:24:57.220Z,102236.53
2023-02-07T09:27:25.271Z,102247.00
2023-02-07T09:29:51.669Z,102241.00
2023-02-07T09:32:18.143Z,102247.16
2023-02-07T09:34:44.732Z,102248.06
2023-02-07T09:37:11.252Z,102236.81
2023-02-07T09:39:38.901Z,102229.13
2023-02-07T09:42:27.918Z,102223.06
2023-02-07T09:45:07.413Z,102223.19
2023-02-07T09:47:39.103Z,102225.88
2023-02-07T09:50:37.396Z,102223.34
2023-02-07T09:53:16.588Z,102220.00
2023-02-07T09:55:50.305Z,102221.78
2023-02-07T09:58:43.772Z,102220.03
2023-02-07T10:01:15.430Z,102233.09
2023-02-07T10:04:13.647Z,102237.41
2023-02-07T10:06:44.060Z,102235.78
2023-02-07T10:09:15.861Z,102235.78
2023-02-07T10:11:48.430Z,102230.63
2023-02-07T10:14:35.847Z,102238.50
2023-02-07T10:17:31.020Z,102238.56
2023-02-07T10:20:23.308Z,102242.94
2023-02-07T10:23:04.174Z,102245.66
2023-02-07T10:26:02.602Z,102251.72
2023-02-07T10:28:44.756Z,102243.13
2023-02-07T10:31:16.371Z,102255.38
2023-02-07T10:33:51.942Z,102251.97
2023-02-07T10:36:19.291Z,102246.81
2023-02-07T10:39:08.094Z,102247.75
2023-02-07T10:41:38.599Z,102240.00
2023-02-07T10:44:09.329Z,102245.28
2023-02-07T10:46:37.511Z,102238.38
2023-02-07T10:49:04.002Z,102243.69
2023-02-07T10:51:38.594Z,102251.56
2023-02-07T10:54:08.825Z,102254.25
2023-02-07T10:56:43.170Z,102260.41
2023-02-07T10:59:32.079Z,102249.19
2023-02-07T11:01:59.451Z,102248.41
2023-02-07T11:04:42.713Z,102241.56
2023-02-07T11:07:14.288Z,102252.09
2023-02-07T11:09:42.031Z,102249.63
2023-02-07T11:14:42.762Z,102248.03
2023-02-07T11:17:21.270Z,102246.38
2023-02-07T11:19:47.869Z,102236.91
2023-02-07T11:22:19.057Z,102235.31
2023-02-07T11:24:47.177Z,102224.94
2023-02-07T11:27:21.573Z,102234.63
2023-02-07T11:29:59.652Z,102225.03
2023-02-07T11:32:28.249Z,102223.22
2023-02-07T11:35:01.534Z,102226.59
2023-02-07T11:37:37.007Z,102226.50
2023-02-07T11:40:28.215Z,102214.91
2023-02-07T11:43:02.204Z,102222.47
2023-02-07T11:45:31.235Z,102217.66
2023-02-07T11:47:58.684Z,102217.00
2023-02-07T11:50:30.830Z,102204.66
2023-02-07T11:53:00.156Z,102209.56
2023-02-07T11:55:32.790Z,102198.34
2023-02-07T11:58:07.541Z,102199.03
2023-02-07T12:00:37.361Z,102201.19
2023-02-07T12:03:08.990Z,102197.00
2023-02-07T12:05:42.647Z,102197.13
2023-02-07T12:08:17.554Z,102184.66
2023-02-07T12:10:49.267Z,102189.97
2023-02-07T12:13:46.429Z,102184.47
2023-02-07T12:16:23.015Z,102181.81
2023-02-07T12:18:55.948Z,102174.09
2023-02-07T12:21:30.837Z,102171.81
2023-02-07T12:24:01.330Z,102168.78
2023-02-07T12:26:32.722Z,102173.16
2023-02-07T12:29:23.438Z,102168.06
2023-02-07T12:32:27.652Z,102173.56
2023-02-07T12:35:27.488Z,102170.84
2023-02-07T12:38:03.116Z,102177.00
2023-02-07T12:43:30.126Z,102181.69
2023-02-07T12:46:02.568Z,102175.72
2023-02-07T12:48:47.639Z,102168.94
2023-02-07T12:51:19.994Z,102171.47
2023-02-07T12:53:51.153Z,102169.91
2023-02-07T12:56:45.659Z,102164.44
2023-02-07T12:59:18.214Z,102166.75
2023-02-07T13:01:47.215Z,102162.38
2023-02-07T13:04:43.576Z,102166.06
2023-02-07T13:07:16.077Z,102163.56
2023-02-07T13:10:12.417Z,102153.88
2023-02-07T13:13:03.259Z,102153.66
2023-02-07T13:15:38.865Z,102158.06
2023-02-07T13:18:22.133Z,102152.34
2023-02-07T13:21:05.907Z,102154.59
2023-02-07T13:23:36.065Z,102150.28
2023-02-07T13:26:08.816Z,102149.81
2023-02-07T13:28:46.691Z,102146.78
2023-02-07T13:31:20.404Z,102149.16
2023-02-07T13:33:48.993Z,102149.63
2023-02-07T13:36:21.214Z,102140.22
2023-02-07T13:39:11.754Z,102142.59
2023-02-07T13:42:03.040Z,102147.81
2023-02-07T13:44:53.669Z,102143.31
2023-02-07T13:47:38.920Z,102146.31
2023-02-07T13:50:15.291Z,102151.19
2023-02-07T13:52:48.623Z,102150.91
2023-02-07T13:55:26.567Z,102141.63
2023-02-07T13:58:12.367Z,102146.97
2023-02-07T14:01:07.333Z,102141.94
2023-02-07T14:03:35.238Z,102147.88
2023-02-07T14:06:26.746Z,102150.44
2023-02-07T14:09:17.644Z,102153.28
2023-02-07T14:11:58.726Z,102141.75
2023-02-07T14:14:28.231Z,102135.41
2023-02-07T14:17:07.109Z,102137.34
2023-02-07T14:19:40.491Z,102136.56
2023-02-07T14:22:12.851Z,102133.31
2023-02-07T14:25:08.366Z,102135.09
2023-02-07T14:27:38.940Z,102133.69
2023-02-07T14:30:27.276Z,102135.56
2023-02-07T14:33:14.292Z,102139.38
2023-02-07T14:36:04.841Z,102133.97
2023-02-07T14:38:41.843Z,102128.63
2023-02-07T14:41:17.322Z,102131.28
2023-02-07T14:44:08.083Z,102124.13
2023-02-07T14:46:40.728Z,102131.94
2023-02-07T14:49:25.729Z,102127.88
2023-02-07T14:52:00.892Z,102122.84
2023-02-07T14:54:40.930Z,102131.56
2023-02-07T14:57:27.436Z,102138.03
2023-02-07T15:00:03.791Z,102138.88
2023-02-07T15:02:31.681Z,102130.81
2023-02-07T15:04:58.936Z,102132.50
2023-02-07T15:07:25.332Z,102126.38
2023-02-07T15:09:51.831Z,102129.19
2023-02-07T15:12:27.290Z,102129.72
2023-02-07T15:14:57.099Z,102128.28
2023-02-07T15:17:33.401Z,102130.78
2023-02-07T15:20:06.306Z,102131.19
2023-02-07T15:22:33.098Z,102125.78
2023-02-07T15:25:00.956Z,102130.44
2023-02-07T15:27:29.681Z,102134.03
2023-02-07T15:29:59.586Z,102138.13
2023-02-07T15:32:40.829Z,102132.22
2023-02-07T15:35:13.830Z,102133.19
2023-02-07T15:37:40.492Z,102132.53
2023-02-07T15:40:07.315Z,102139.75
2023-02-07T15:42:33.907Z,102131.78
2023-02-07T15:45:00.328Z,102140.25
2023-02-07T15:47:32.061Z,102142.38
2023-02-07T15:50:14.329Z,102139.03
2023-02-07T15:52:44.628Z,102136.44
2023-02-07T15:55:27.924Z,102133.03
2023-02-07T15:57:54.193Z,102131.88
2023-02-07T16:00:36.780Z,102132.66
2023-02-07T16:03:13.487Z,102125.34
2023-02-07T16:05:41.681Z,102124.97
2023-02-07T16:08:33.305Z,102128.22
2023-02-07T16:11:22.285Z,102130.38
2023-02-07T16:14:17.480Z,102128.09
2023-02-07T16:16:53.008Z,102136.22
2023-02-07T16:19:24.625Z,102131.13
2023-02-07T16:22:01.227Z,102137.41
2023-02-07T16:24:27.688Z,102142.75
2023-02-07T16:26:55.734Z,102142.84
2023-02-07T16:29:25.986Z,102132.41
2023-02-07T16:31:54.713Z,102141.22
2023-02-07T16:34:22.598Z,102136.94
2023-02-07T16:36:58.091Z,102133.53
2023-02-07T16:39:24.485Z,102135.34
2023-02-07T16:42:00.894Z,102144.19
2023-02-07T16:44:31.025Z,102146.81
2023-02-07T16:46:57.906Z,102149.50
2023-02-07T16:49:26.503Z,102147.78
2023-02-07T16:51:54.536Z,102147.84
2023-02-07T16:54:21.047Z,102151.38
2023-02-07T16:56:54.326Z,102148.81
2023-02-07T16:59:22.252Z,102146.25
2023-02-07T17:01:51.506Z,102151.53
2023-02-07T17:04:18.329Z,102144.56
2023-02-07T17:06:45.520Z,102157.66
2023-02-07T17:09:23.844Z,102148.97
2023-02-07T17:11:51.771Z,102144.63
